Time;durP1;ratioP1;P1;durP2;ratioP2;P2;SDS_P1;SDS_P2;PMS_P1;PMS_P2;Temp;Humidity;BMP_temperature;BMP_pressure;BME280_temperature;BME280_humidity;BME280_pressure;Samples;Min_cycle;Max_cycle;Signal;HPM_P1;HPM_P2
2022/07/20 00:01:13;;;;;;;1.48;0.80;;;25.40;50.10;;;;;;5057478;28;20036;-76
2022/07/20 00:03:41;;;;;;;2.28;1.20;;;25.40;50.20;;;;;;5091224;28;20099;-76
2022/07/20 00:06:08;;;;;;;2.13;1.00;;;25.40;50.40;;;;;;5074479;28;20398;-76
2022/07/20 00:11:22;;;;;;;2.08;1.00;;;25.20;50.80;;;;;;5092052;28;20040;-77
2022/07/20 00:13:57;;;;;;;4.38;1.02;;;25.20;50.90;;;;;;5072973;28;20406;-76
2022/07/20 00:16:26;;;;;;;1.55;0.90;;;25.20;51.10;;;;;;5092774;28;20032;-76
2022/07/20 00:18:53;;;;;;;3.22;0.90;;;25.10;51.20;;;;;;5090841;28;20035;-77
2022/07/20 00:21:19;;;;;;;2.58;0.90;;;25.10;51.30;;;;;;5057205;28;20035;-77
2022/07/20 00:23:46;;;;;;;1.77;0.80;;;25.10;51.30;;;;;;5090710;28;20035;-76
2022/07/20 00:26:12;;;;;;;1.60;0.90;;;25.00;51.40;;;;;;5090946;28;20036;-76
2022/07/20 00:28:38;;;;;;;2.22;1.00;;;25.00;51.80;;;;;;5090229;28;20043;-76
2022/07/20 00:31:05;;;;;;;1.55;0.88;;;24.90;51.80;;;;;;5043641;28;20047;-76
2022/07/20 00:33:32;;;;;;;3.35;1.00;;;24.90;51.60;;;;;;5091927;28;20149;-76
2022/07/20 00:35:58;;;;;;;1.50;0.88;;;24.90;51.50;;;;;;5073889;28;20027;-76
2022/07/20 00:38:25;;;;;;;2.38;0.93;;;24.80;51.60;;;;;;5075678;28;20098;-76
2022/07/20 00:40:51;;;;;;;1.95;0.70;;;24.80;51.70;;;;;;5091242;28;20032;-76
2022/07/20 00:43:17;;;;;;;2.00;0.85;;;24.80;51.70;;;;;;5078679;28;20043;-76
2022/07/20 00:45:45;;;;;;;3.90;0.90;;;24.80;51.60;;;;;;5092502;28;20114;-76
2022/07/20 00:48:11;;;;;;;1.70;0.85;;;24.70;51.60;;;;;;5073594;28;20028;-76
2022/07/20 00:50:38;;;;;;;1.38;0.80;;;24.70;51.50;;;;;;5089879;28;20028;-76
2022/07/20 00:53:05;;;;;;;2.33;1.25;;;24.80;51.40;;;;;;5093100;28;20039;-76
2022/07/20 00:55:32;;;;;;;2.22;0.90;;;24.70;51.30;;;;;;5094087;28;20031;-76
2022/07/20 00:57:58;;;;;;;2.13;0.77;;;24.70;51.30;;;;;;5073394;28;20044;-77
2022/07/20 01:00:25;;;;;;;2.85;1.00;;;24.70;51.30;;;;;;5072977;28;20048;-76
2022/07/20 01:02:51;;;;;;;2.72;0.75;;;24.70;51.30;;;;;;5056816;28;20032;-76
2022/07/20 01:05:18;;;;;;;2.08;1.20;;;24.70;51.40;;;;;;5090504;28;20036;-76
2022/07/20 01:07:46;;;;;;;1.95;0.90;;;24.60;51.50;;;;;;5073287;28;20039;-76
2022/07/20 01:10:14;;;;;;;1.10;0.60;;;24.60;51.70;;;;;;5072021;28;20040;-76
2022/07/20 01:12:45;;;;;;;2.95;0.80;;;24.50;51.60;;;;;;5089670;28;20032;-76
2022/07/20 01:15:12;;;;;;;2.10;0.98;;;24.50;51.80;;;;;;5095305;28;20043;-76
2022/07/20 01:17:38;;;;;;;4.47;1.13;;;24.40;51.80;;;;;;5091553;28;20036;-76
2022/07/20 01:20:05;;;;;;;3.03;0.95;;;24.40;51.80;;;;;;5056121;28;20036;-76
2022/07/20 01:22:32;;;;;;;1.63;0.85;;;24.40;51.90;;;;;;5072468;28;20048;-77
2022/07/20 01:24:59;;;;;;;2.20;0.93;;;24.30;52.00;;;;;;5073830;28;20042;-77
2022/07/20 01:27:25;;;;;;;1.60;0.77;;;24.30;52.40;;;;;;5071280;28;20032;-76
2022/07/20 01:29:52;;;;;;;2.80;0.90;;;24.30;52.30;;;;;;5056339;28;20040;-76
2022/07/20 01:32:18;;;;;;;2.70;0.80;;;24.20;52.50;;;;;;5072738;28;20044;-76
2022/07/20 01:34:45;;;;;;;1.40;0.80;;;24.10;52.50;;;;;;5077397;28;20059;-76
2022/07/20 01:37:11;;;;;;;2.35;0.93;;;24.20;52.50;;;;;;5089747;28;20032;-76
2022/07/20 01:39:38;;;;;;;2.00;0.85;;;24.20;52.60;;;;;;5094524;28;20047;-76
2022/07/20 01:42:04;;;;;;;2.22;0.90;;;24.10;52.90;;;;;;5057076;28;20036;-76
2022/07/20 01:44:30;;;;;;;2.50;0.75;;;24.10;53.10;;;;;;5093308;28;20032;-76
2022/07/20 01:46:57;;;;;;;3.08;0.80;;;24.10;53.20;;;;;;5076884;28;21138;-76
2022/07/20 01:49:27;;;;;;;2.10;0.88;;;24.00;53.30;;;;;;5087442;28;20351;-76
2022/07/20 01:51:54;;;;;;;2.85;0.70;;;24.00;54.20;;;;;;5097493;28;20036;-76
2022/07/20 01:54:20;;;;;;;1.77;0.90;;;23.90;53.40;;;;;;5063983;28;20040;-76
2022/07/20 01:56:47;;;;;;;2.25;1.10;;;23.90;53.50;;;;;;5099822;28;20047;-76
2022/07/20 01:59:13;;;;;;;1.45;0.82;;;23.90;53.60;;;;;;5098735;28;20039;-76
2022/07/20 02:01:40;;;;;;;1.25;0.82;;;23.80;53.80;;;;;;5095567;28;20032;-76
2022/07/20 02:04:06;;;;;;;1.75;0.70;;;23.80;53.90;;;;;;5099243;28;20036;-76
2022/07/20 02:06:32;;;;;;;1.50;0.73;;;23.80;54.10;;;;;;5084811;28;20379;-76
2022/07/20 02:08:59;;;;;;;2.08;0.93;;;23.80;54.30;;;;;;5080409;28;20036;-76
2022/07/20 02:11:25;;;;;;;3.30;0.88;;;23.70;54.30;;;;;;5081576;28;20020;-76
2022/07/20 02:13:52;;;;;;;5.20;0.90;;;23.70;55.10;;;;;;5098504;28;20039;-76
2022/07/20 02:16:19;;;;;;;1.65;0.93;;;23.60;54.40;;;;;;5100142;28;20028;-76
2022/07/20 02:18:48;;;;;;;1.58;0.80;;;23.60;54.60;;;;;;5063338;28;20073;-76
2022/07/20 02:21:16;;;;;;;1.52;0.90;;;23.50;54.70;;;;;;5097221;28;20043;-76
2022/07/20 02:23:43;;;;;;;2.00;0.98;;;23.50;55.50;;;;;;5074708;28;20043;-76
2022/07/20 02:26:10;;;;;;;2.10;0.93;;;23.40;54.90;;;;;;5102655;28;20036;-76
2022/07/20 02:28:37;;;;;;;2.05;0.90;;;23.40;55.00;;;;;;5101484;28;20028;-76
2022/07/20 02:31:04;;;;;;;3.13;1.00;;;23.40;55.00;;;;;;5095934;28;20032;-77
2022/07/20 02:33:30;;;;;;;3.05;0.95;;;23.40;55.10;;;;;;5059448;28;20039;-77
2022/07/20 02:35:57;;;;;;;2.60;1.02;;;23.40;55.30;;;;;;5094568;28;20048;-77
2022/07/20 02:38:24;;;;;;;2.03;1.10;;;23.40;55.40;;;;;;5079079;28;20099;-77
2022/07/20 02:40:51;;;;;;;2.38;1.15;;;23.40;55.50;;;;;;5100409;28;20039;-76
2022/07/20 02:43:17;;;;;;;2.60;0.80;;;23.40;55.50;;;;;;5080600;28;20043;-76
2022/07/20 02:45:44;;;;;;;2.65;1.27;;;23.40;55.50;;;;;;5097515;28;20078;-76
2022/07/20 02:48:10;;;;;;;2.83;1.38;;;23.30;55.50;;;;;;5059151;28;20040;-76
2022/07/20 02:50:38;;;;;;;4.15;1.08;;;23.30;55.50;;;;;;5092412;28;20035;-76
2022/07/20 02:53:05;;;;;;;2.95;1.05;;;23.30;55.70;;;;;;5100931;28;20036;-76
2022/07/20 02:55:32;;;;;;;2.55;1.10;;;23.20;55.70;;;;;;5097952;28;20039;-76
2022/07/20 02:57:58;;;;;;;1.80;1.05;;;23.10;56.10;;;;;;5092369;28;20036;-76
2022/07/20 03:00:26;;;;;;;1.65;0.90;;;23.00;56.30;;;;;;5083216;28;20043;-76
2022/07/20 03:02:52;;;;;;;5.10;1.27;;;23.00;56.70;;;;;;5075992;28;20035;-76
2022/07/20 03:05:19;;;;;;;2.38;1.30;;;22.90;57.40;;;;;;5060162;28;20051;-76
2022/07/20 03:07:46;;;;;;;1.95;0.85;;;22.80;57.60;;;;;;5100916;28;20023;-76
2022/07/20 03:10:12;;;;;;;1.25;0.85;;;22.70;57.50;;;;;;5058846;28;20372;-76
2022/07/20 03:12:39;;;;;;;1.75;0.80;;;22.70;57.80;;;;;;5058900;28;20044;-76
2022/07/20 03:15:06;;;;;;;1.27;0.70;;;22.60;57.70;;;;;;5094613;28;20040;-76
2022/07/20 03:17:39;;;;;;;4.60;0.90;;;22.60;57.70;;;;;;5079469;28;20036;-76
2022/07/20 03:20:06;;;;;;;1.88;0.82;;;22.50;57.90;;;;;;5073733;28;20032;-76
2022/07/20 03:22:32;;;;;;;2.67;0.82;;;22.50;57.90;;;;;;5058891;28;20052;-77
2022/07/20 03:24:59;;;;;;;1.63;0.77;;;22.50;57.90;;;;;;5092347;28;20028;-77
2022/07/20 03:27:25;;;;;;;2.67;1.00;;;22.50;58.00;;;;;;5077855;28;20040;-77
2022/07/20 03:29:51;;;;;;;1.85;1.10;;;22.50;58.30;;;;;;5091219;28;20035;-77
2022/07/20 03:32:18;;;;;;;1.75;1.02;;;22.60;58.30;;;;;;5079536;28;20522;-77
2022/07/20 03:34:44;;;;;;;1.63;1.00;;;22.60;58.40;;;;;;5075717;28;20379;-77
2022/07/20 03:37:11;;;;;;;3.15;1.27;;;22.50;58.50;;;;;;5058597;28;20059;-77
2022/07/20 03:39:37;;;;;;;2.33;1.20;;;22.50;58.90;;;;;;5076955;28;20040;-77
2022/07/20 03:42:03;;;;;;;4.18;1.10;;;22.40;59.00;;;;;;5092276;28;20032;-77
2022/07/20 03:44:30;;;;;;;1.60;0.82;;;22.40;58.90;;;;;;5095999;28;20036;-77
2022/07/20 03:46:56;;;;;;;2.55;0.80;;;22.40;58.80;;;;;;5091350;28;20044;-77
2022/07/20 03:49:23;;;;;;;2.22;1.00;;;22.40;58.70;;;;;;5098373;28;20032;-77
2022/07/20 03:51:49;;;;;;;1.65;1.05;;;22.40;58.80;;;;;;5062877;28;20031;-77
2022/07/20 03:54:15;;;;;;;1.80;0.80;;;22.40;58.90;;;;;;5081590;28;20039;-77
2022/07/20 03:56:42;;;;;;;2.95;0.70;;;22.30;59.00;;;;;;5089024;28;20498;-77
2022/07/20 03:59:11;;;;;;;2.72;0.95;;;22.30;59.20;;;;;;5077270;28;20043;-77
2022/07/20 04:01:38;;;;;;;3.85;1.27;;;22.30;59.30;;;;;;5075236;28;20021;-77
2022/07/20 04:04:05;;;;;;;2.70;1.10;;;22.30;59.50;;;;;;5064212;28;20038;-77
2022/07/20 04:06:31;;;;;;;4.30;0.82;;;22.30;59.50;;;;;;5100335;28;20035;-77
2022/07/20 04:08:58;;;;;;;3.47;1.00;;;22.30;59.60;;;;;;5090356;28;20032;-77
2022/07/20 04:11:24;;;;;;;5.40;1.15;;;22.20;59.70;;;;;;5093286;28;20375;-77
2022/07/20 04:13:52;;;;;;;4.13;1.33;;;22.30;59.80;;;;;;5091282;28;20036;-77
2022/07/20 04:16:18;;;;;;;2.65;1.52;;;22.30;60.30;;;;;;5097526;28;20040;-77
2022/07/20 04:18:45;;;;;;;2.50;1.15;;;22.30;60.30;;;;;;5078028;28;20063;-77
2022/07/20 04:21:11;;;;;;;2.15;1.30;;;22.40;60.20;;;;;;5074056;28;20043;-77
2022/07/20 04:23:38;;;;;;;3.72;1.30;;;22.40;60.20;;;;;;5075420;28;20055;-77
2022/07/20 04:26:04;;;;;;;2.95;1.27;;;22.50;60.60;;;;;;5094205;28;20025;-75
2022/07/20 04:28:31;;;;;;;2.65;1.58;;;22.50;60.60;;;;;;5076841;28;20040;-76
2022/07/20 04:30:57;;;;;;;3.53;1.90;;;22.60;61.00;;;;;;5077769;28;20036;-79
2022/07/20 04:33:24;;;;;;;3.45;1.52;;;22.60;61.10;;;;;;5074324;28;20040;-79
2022/07/20 04:35:50;;;;;;;3.53;2.17;;;22.60;61.20;;;;;;5074413;28;20044;-78
2022/07/20 04:38:20;;;;;;;3.85;1.95;;;22.70;61.50;;;;;;5040060;28;20055;-78
2022/07/20 04:40:47;;;;;;;3.30;2.50;;;22.70;61.90;;;;;;5055710;28;20040;-78
2022/07/20 04:43:13;;;;;;;4.10;2.50;;;22.80;62.10;;;;;;5075119;28;20032;-78
2022/07/20 04:45:40;;;;;;;10.60;4.65;;;22.80;62.20;;;;;;5039168;28;20037;-78
2022/07/20 04:48:06;;;;;;;7.15;4.00;;;22.90;63.00;;;;;;5057405;28;20024;-78
2022/07/20 04:50:33;;;;;;;5.82;4.05;;;23.00;63.40;;;;;;5069285;28;20044;-76
2022/07/20 04:52:59;;;;;;;5.43;4.28;;;23.00;63.70;;;;;;5072007;28;20028;-76
2022/07/20 04:55:26;;;;;;;7.35;5.28;;;23.10;64.20;;;;;;5080015;28;20040;-76
2022/07/20 04:57:52;;;;;;;10.95;5.75;;;23.10;64.50;;;;;;5056759;28;20039;-77
2022/07/20 05:00:18;;;;;;;7.18;5.60;;;23.20;65.20;;;;;;5038285;28;20056;-77
2022/07/20 05:02:45;;;;;;;7.35;5.05;;;23.30;65.40;;;;;;5055676;28;20036;-76
2022/07/20 05:05:11;;;;;;;11.05;7.97;;;23.30;65.50;;;;;;5073020;28;20514;-77
2022/07/20 05:07:37;;;;;;;10.73;7.43;;;23.40;66.50;;;;;;5075831;28;20032;-77
2022/07/20 05:10:04;;;;;;;11.40;7.82;;;23.50;67.00;;;;;;5049311;28;20027;-77
2022/07/20 05:12:30;;;;;;;10.02;7.65;;;23.60;67.10;;;;;;5081360;28;20044;-77
2022/07/20 05:14:57;;;;;;;9.60;7.03;;;23.70;67.20;;;;;;5094886;28;20035;-77
2022/07/20 05:17:23;;;;;;;10.07;7.75;;;23.80;67.20;;;;;;5091761;28;20032;-77
2022/07/20 05:19:49;;;;;;;14.27;9.43;;;23.90;67.30;;;;;;5041535;28;20051;-77
2022/07/20 05:22:16;;;;;;;14.32;11.15;;;24.00;67.80;;;;;;5070051;28;20087;-76
2022/07/20 05:24:42;;;;;;;14.48;10.45;;;24.00;68.70;;;;;;5079337;28;20032;-77
2022/07/20 05:27:08;;;;;;;16.65;10.77;;;24.10;68.90;;;;;;5102062;28;20475;-79
2022/07/20 05:29:35;;;;;;;17.92;10.80;;;24.30;69.20;;;;;;5080504;28;20383;-78
2022/07/20 05:32:01;;;;;;;14.18;10.27;;;24.30;69.30;;;;;;5037995;28;20027;-78
2022/07/20 05:34:28;;;;;;;11.57;10.38;;;24.40;69.70;;;;;;5078753;28;20036;-78
2022/07/20 05:36:54;;;;;;;18.05;11.25;;;24.50;70.30;;;;;;5087672;28;20028;-78
2022/07/20 05:39:21;;;;;;;15.55;11.77;;;24.60;70.00;;;;;;5044886;28;20041;-77
2022/07/20 05:41:47;;;;;;;14.85;13.25;;;24.80;70.00;;;;;;5101088;28;20028;-78
2022/07/20 05:44:14;;;;;;;16.92;14.55;;;24.90;70.00;;;;;;5101162;28;20505;-77
2022/07/20 05:46:40;;;;;;;22.35;15.90;;;25.00;70.20;;;;;;5086979;28;20039;-79
2022/07/20 05:49:07;;;;;;;19.67;16.42;;;25.10;70.40;;;;;;5079276;28;20032;-77
2022/07/20 05:51:35;;;;;;;19.90;17.08;;;25.20;70.90;;;;;;5077893;28;20036;-79
2022/07/20 05:54:01;;;;;;;20.25;15.80;;;25.20;70.80;;;;;;5084085;28;20042;-78
2022/07/20 05:56:28;;;;;;;22.63;17.05;;;25.30;70.90;;;;;;5078556;28;20047;-76
2022/07/20 05:58:55;;;;;;;20.20;16.20;;;25.40;71.30;;;;;;5083025;28;20042;-75
2022/07/20 06:01:21;;;;;;;18.23;16.08;;;25.50;71.30;;;;;;5104624;28;20525;-75
2022/07/20 06:03:47;;;;;;;23.15;18.33;;;25.60;71.30;;;;;;5078971;28;20055;-75
2022/07/20 06:06:14;;;;;;;20.70;15.75;;;25.70;71.40;;;;;;5099454;28;20039;-78
2022/07/20 06:08:40;;;;;;;20.92;16.55;;;25.90;71.20;;;;;;5047974;28;20510;-75
2022/07/20 06:11:08;;;;;;;20.73;14.98;;;26.00;70.90;;;;;;5070434;28;20487;-75
2022/07/20 06:13:35;;;;;;;19.88;16.25;;;26.20;70.90;;;;;;5083719;28;20031;-75
2022/07/20 06:16:01;;;;;;;22.10;16.75;;;26.40;70.70;;;;;;5064936;28;20036;-75
2022/07/20 06:18:27;;;;;;;20.95;16.00;;;26.70;70.50;;;;;;5098423;28;20043;-76
2022/07/20 06:20:54;;;;;;;16.92;14.48;;;26.90;70.10;;;;;;5101661;28;20032;-77
2022/07/20 06:23:20;;;;;;;22.42;16.42;;;27.20;69.50;;;;;;5054813;28;20051;-77
2022/07/20 06:25:46;;;;;;;19.77;15.63;;;27.50;69.00;;;;;;5073192;28;20035;-77
2022/07/20 06:28:13;;;;;;;17.27;14.00;;;27.70;68.80;;;;;;5106167;28;20038;-78
2022/07/20 06:30:40;;;;;;;23.58;17.42;;;27.70;68.80;;;;;;5104307;28;20035;-78
2022/07/20 06:33:06;;;;;;;23.30;18.63;;;27.80;69.00;;;;;;5055758;28;20042;-77
2022/07/20 06:35:32;;;;;;;23.33;18.67;;;27.90;69.10;;;;;;5106033;28;20024;-77
2022/07/20 06:37:59;;;;;;;20.95;18.30;;;27.90;69.20;;;;;;5066762;28;20032;-77
2022/07/20 06:40:25;;;;;;;19.98;17.65;;;27.90;69.30;;;;;;5101327;28;20043;-77
2022/07/20 06:42:52;;;;;;;19.40;16.50;;;27.90;69.30;;;;;;5083040;28;20394;-77
2022/07/20 06:45:18;;;;;;;23.17;19.85;;;28.00;69.20;;;;;;5079182;28;20407;-77
2022/07/20 06:47:45;;;;;;;23.38;19.17;;;28.10;69.40;;;;;;5094729;28;20444;-77
2022/07/20 06:50:11;;;;;;;20.77;18.58;;;28.20;69.40;;;;;;5086975;28;20040;-77
2022/07/20 06:52:38;;;;;;;21.95;19.52;;;28.30;68.90;;;;;;5059213;28;20035;-77
2022/07/20 06:55:05;;;;;;;22.40;19.13;;;28.50;68.50;;;;;;5099416;28;20039;-77
2022/07/20 06:57:32;;;;;;;22.67;18.80;;;28.60;68.20;;;;;;5079268;28;20388;-77
2022/07/20 06:59:58;;;;;;;21.85;19.52;;;28.70;68.10;;;;;;5060553;28;20044;-78
2022/07/20 07:02:25;;;;;;;21.73;19.00;;;28.70;68.10;;;;;;5079951;28;20459;-77
2022/07/20 07:04:51;;;;;;;21.15;17.35;;;28.70;68.30;;;;;;5078601;28;20028;-77
2022/07/20 07:07:17;;;;;;;24.45;18.90;;;28.60;68.30;;;;;;5085497;28;20021;-77
2022/07/20 07:09:44;;;;;;;23.40;19.67;;;28.60;68.50;;;;;;5067435;28;20221;-77
2022/07/20 07:12:10;;;;;;;21.75;18.65;;;28.70;68.40;;;;;;5097535;28;20100;-77
2022/07/20 07:14:37;;;;;;;22.33;19.13;;;28.60;68.30;;;;;;5027321;28;20043;-77
2022/07/20 07:17:03;;;;;;;21.45;17.63;;;28.60;68.40;;;;;;5066081;28;20044;-77
2022/07/20 07:19:30;;;;;;;20.20;16.55;;;28.40;68.50;;;;;;5101427;28;20032;-77
2022/07/20 07:21:56;;;;;;;21.23;17.38;;;28.20;68.70;;;;;;5077429;28;20045;-77
2022/07/20 07:24:23;;;;;;;19.50;16.17;;;28.20;68.70;;;;;;5079470;28;20039;-77
2022/07/20 07:26:49;;;;;;;22.60;18.88;;;28.30;68.60;;;;;;5058261;28;20106;-77
2022/07/20 07:29:15;;;;;;;23.33;18.13;;;28.50;68.10;;;;;;5061698;28;20395;-77
2022/07/20 07:31:42;;;;;;;20.10;16.00;;;28.60;67.70;;;;;;5066121;28;20042;-77
2022/07/20 07:34:08;;;;;;;20.17;15.85;;;28.60;67.50;;;;;;5073738;28;20043;-77
2022/07/20 07:36:35;;;;;;;17.05;14.25;;;28.40;67.50;;;;;;5074472;28;20032;-77
2022/07/20 07:39:03;;;;;;;15.68;12.68;;;28.30;67.50;;;;;;5092841;28;20028;-77
2022/07/20 07:41:30;;;;;;;12.57;11.13;;;28.40;67.50;;;;;;5097346;28;20474;-77
2022/07/20 07:43:56;;;;;;;17.60;14.93;;;28.50;67.30;;;;;;5088522;28;20039;-77
2022/07/20 07:46:23;;;;;;;17.67;12.57;;;28.80;67.00;;;;;;5065593;28;20039;-77
2022/07/20 07:48:50;;;;;;;16.52;13.63;;;28.90;66.50;;;;;;5093113;28;20047;-77
2022/07/20 07:51:16;;;;;;;15.75;12.75;;;29.00;66.20;;;;;;5060590;28;20028;-77
2022/07/20 07:53:43;;;;;;;15.55;13.65;;;29.10;66.00;;;;;;5095654;28;20379;-77
2022/07/20 07:56:10;;;;;;;18.08;14.13;;;29.00;66.00;;;;;;5062611;28;20034;-78
2022/07/20 07:58:37;;;;;;;16.67;12.18;;;28.90;65.80;;;;;;5089560;28;20490;-77
2022/07/20 08:01:03;;;;;;;14.23;10.65;;;28.90;65.90;;;;;;5093686;28;20040;-77
2022/07/20 08:03:30;;;;;;;13.75;11.02;;;29.10;65.60;;;;;;5079428;28;20059;-77
2022/07/20 08:05:57;;;;;;;17.25;12.68;;;29.20;65.10;;;;;;5061270;28;20390;-77
2022/07/20 08:08:23;;;;;;;14.45;11.38;;;29.10;65.00;;;;;;5059882;28;20040;-77
2022/07/20 08:10:49;;;;;;;14.63;11.13;;;29.10;65.00;;;;;;5059877;28;20979;-78
2022/07/20 08:13:16;;;;;;;14.82;10.50;;;29.20;64.80;;;;;;5072904;28;20047;-77
2022/07/20 08:15:42;;;;;;;12.95;10.45;;;29.30;64.70;;;;;;5094167;28;20023;-78
2022/07/20 08:18:09;;;;;;;15.07;11.07;;;29.40;64.60;;;;;;5092146;28;20032;-77
2022/07/20 08:20:35;;;;;;;14.07;10.90;;;29.50;64.30;;;;;;5041142;28;20033;-77
2022/07/20 08:23:01;;;;;;;15.32;11.88;;;29.60;64.20;;;;;;5054543;28;20051;-78
2022/07/20 08:25:28;;;;;;;13.25;10.55;;;29.70;63.90;;;;;;5077816;28;20032;-77
2022/07/20 08:27:54;;;;;;;14.68;9.68;;;29.70;63.30;;;;;;5081325;28;20028;-77
2022/07/20 08:30:21;;;;;;;9.95;8.10;;;29.80;63.30;;;;;;5058402;28;20063;-78
2022/07/20 08:32:49;;;;;;;11.20;8.85;;;29.90;62.90;;;;;;5090359;28;20052;-77
2022/07/20 08:35:15;;;;;;;12.57;8.40;;;30.00;62.00;;;;;;5073710;28;20377;-76
2022/07/20 08:37:42;;;;;;;10.38;8.77;;;30.00;61.70;;;;;;5060329;28;20028;-76
2022/07/20 08:40:09;;;;;;;11.82;8.60;;;30.00;61.40;;;;;;5091262;28;20023;-76
2022/07/20 08:42:35;;;;;;;13.50;9.85;;;29.90;61.50;;;;;;5056670;28;20031;-77
2022/07/20 08:45:02;;;;;;;11.88;8.30;;;29.90;60.80;;;;;;5077622;28;20039;-77
2022/07/20 08:47:30;;;;;;;12.02;7.45;;;30.00;60.90;;;;;;5090295;28;20041;-77
2022/07/20 08:49:57;;;;;;;14.93;8.80;;;29.90;60.90;;;;;;5073982;28;20028;-77
2022/07/20 08:52:23;;;;;;;11.13;8.75;;;29.90;61.00;;;;;;5076169;28;20033;-77
2022/07/20 08:54:50;;;;;;;13.07;8.27;;;29.80;61.00;;;;;;5061066;28;20028;-77
2022/07/20 08:57:17;;;;;;;10.05;7.95;;;29.80;61.00;;;;;;5058861;28;20024;-78
2022/07/20 08:59:45;;;;;;;12.32;8.48;;;30.00;61.00;;;;;;5075366;28;20032;-77
2022/07/20 09:02:12;;;;;;;11.25;7.60;;;30.20;60.70;;;;;;5077451;28;20036;-77
2022/07/20 09:04:52;;;;;;;10.13;7.60;;;30.40;60.20;;;;;;5098338;28;20112;-78
2022/07/20 09:07:40;;;;;;;11.57;7.82;;;30.60;59.70;;;;;;5085149;28;20032;-80
2022/07/20 09:10:09;;;;;;;10.02;7.60;;;30.70;59.30;;;;;;5042564;28;20039;-79
2022/07/20 09:12:55;;;;;;;10.65;6.97;;;30.70;59.00;;;;;;5089336;28;20051;-77
2022/07/20 09:15:27;;;;;;;10.95;7.35;;;30.80;58.70;;;;;;5094261;28;20055;-77
2022/07/20 09:18:12;;;;;;;11.50;6.65;;;30.90;58.90;;;;;;5073039;28;20498;-78
2022/07/20 09:20:49;;;;;;;9.73;6.57;;;31.10;58.60;;;;;;5080786;28;20039;-78
2022/07/20 09:23:26;;;;;;;8.05;6.47;;;31.10;58.20;;;;;;5063107;28;20060;-78
2022/07/20 09:26:01;;;;;;;9.18;6.82;;;31.10;58.10;;;;;;5097510;28;20036;-78
2022/07/20 09:28:38;;;;;;;7.30;5.57;;;31.20;57.70;;;;;;5097187;28;20461;-78
2022/07/20 09:31:26;;;;;;;7.28;5.45;;;31.30;57.40;;;;;;5082253;28;20055;-78
2022/07/20 09:33:57;;;;;;;7.07;5.50;;;31.50;57.30;;;;;;5061285;28;20036;-78
2022/07/20 09:36:26;;;;;;;7.77;5.20;;;31.60;57.60;;;;;;5096756;28;20031;-78
2022/07/20 09:38:52;;;;;;;6.97;5.22;;;31.70;56.40;;;;;;5089338;28;21739;-78
2022/07/20 09:41:30;;;;;;;8.68;5.90;;;31.70;56.10;;;;;;5101059;28;20043;-78
2022/07/20 09:43:59;;;;;;;10.00;4.78;;;31.80;56.40;;;;;;5087917;28;20036;-78
2022/07/20 09:46:32;;;;;;;6.55;5.13;;;31.80;55.90;;;;;;5097708;28;20066;-78
2022/07/20 09:49:02;;;;;;;8.48;5.22;;;31.80;55.90;;;;;;5091758;28;20032;-76
2022/07/20 09:51:34;;;;;;;5.63;4.40;;;31.90;55.60;;;;;;5089851;28;20486;-76
2022/07/20 09:54:06;;;;;;;7.40;4.90;;;32.00;55.70;;;;;;5074594;28;20028;-75
2022/07/20 09:56:35;;;;;;;7.50;4.53;;;32.20;55.60;;;;;;5070986;28;20494;-75
2022/07/20 09:59:05;;;;;;;8.68;5.00;;;32.40;54.90;;;;;;5073895;28;20025;-76
2022/07/20 10:01:36;;;;;;;5.63;4.90;;;32.60;54.30;;;;;;5087122;28;20020;-76
2022/07/20 10:04:06;;;;;;;6.72;4.68;;;32.70;54.00;;;;;;5077155;28;20043;-76
2022/07/20 10:06:35;;;;;;;5.82;4.43;;;32.80;54.00;;;;;;5044243;28;20106;-76
2022/07/20 10:09:03;;;;;;;4.63;4.07;;;32.80;53.80;;;;;;5075594;28;20035;-76
2022/07/20 10:11:30;;;;;;;8.43;5.53;;;33.00;54.20;;;;;;5091312;28;20036;-76
2022/07/20 10:13:58;;;;;;;5.63;4.85;;;33.20;54.30;;;;;;5081908;28;20396;-76
2022/07/20 10:16:34;;;;;;;7.20;4.55;;;33.20;54.40;;;;;;5093698;28;20024;-76
2022/07/20 10:19:01;;;;;;;6.60;4.40;;;33.20;54.50;;;;;;5100266;28;20376;-76
2022/07/20 10:21:41;;;;;;;5.10;4.07;;;33.20;55.20;;;;;;5059817;28;20043;-75
2022/07/20 10:24:34;;;;;;;7.38;4.97;;;33.40;54.40;;;;;;5092686;28;20379;-76
2022/07/20 10:27:06;;;;;;;6.18;5.07;;;33.40;54.10;;;;;;5095973;28;20043;-76
2022/07/20 10:29:37;;;;;;;9.98;6.25;;;33.50;54.00;;;;;;5095283;28;20024;-76
2022/07/20 10:32:09;;;;;;;5.70;4.07;;;33.60;54.00;;;;;;5093797;28;20044;-76
2022/07/20 10:34:40;;;;;;;6.85;4.15;;;33.70;53.30;;;;;;5086296;28;20032;-76
2022/07/20 10:37:29;;;;;;;7.80;3.67;;;33.70;53.40;;;;;;5097300;28;20028;-76
2022/07/20 10:40:06;;;;;;;6.22;4.20;;;33.80;53.00;;;;;;5089389;28;20035;-76
2022/07/20 10:42:42;;;;;;;7.78;4.15;;;33.90;52.60;;;;;;5072238;28;20499;-76
2022/07/20 10:45:17;;;;;;;6.78;4.55;;;34.00;52.30;;;;;;5095381;28;20486;-76
2022/07/20 10:47:50;;;;;;;7.22;4.47;;;34.10;52.30;;;;;;5095189;28;20036;-77
2022/07/20 10:50:36;;;;;;;6.22;5.18;;;34.10;52.50;;;;;;5058499;28;20090;-77
2022/07/20 10:53:12;;;;;;;8.50;5.40;;;34.10;53.00;;;;;;5094973;28;20040;-77
2022/07/20 10:55:38;;;;;;;10.25;5.80;;;34.30;53.30;;;;;;5077913;28;20396;-80
2022/07/20 10:58:13;;;;;;;7.15;4.75;;;34.50;53.30;;;;;;5079545;28;20033;-78
2022/07/20 11:00:46;;;;;;;7.32;4.88;;;34.90;53.00;;;;;;5061598;28;20048;-79
2022/07/20 11:03:23;;;;;;;7.47;5.18;;;35.30;52.90;;;;;;5080609;28;20473;-79
2022/07/20 11:06:04;;;;;;;7.25;5.20;;;35.50;51.80;;;;;;5077290;28;20036;-78
2022/07/20 11:08:31;;;;;;;7.10;4.73;;;35.70;51.70;;;;;;5089079;28;20039;-78
2022/07/20 11:10:58;;;;;;;6.50;4.63;;;35.80;51.60;;;;;;5091364;28;20015;-78
2022/07/20 11:13:25;;;;;;;5.22;4.15;;;36.10;51.20;;;;;;5060635;28;20107;-78
2022/07/20 11:16:02;;;;;;;7.55;5.65;;;36.40;50.50;;;;;;5080421;28;20028;-79
2022/07/20 11:18:30;;;;;;;6.63;4.22;;;36.80;49.80;;;;;;5046736;28;20385;-78
2022/07/20 11:21:01;;;;;;;5.40;4.03;;;37.00;49.30;;;;;;5061073;28;20027;-79
2022/07/20 11:23:50;;;;;;;5.65;4.07;;;36.90;49.20;;;;;;5064353;28;20040;-79
2022/07/20 11:26:20;;;;;;;4.80;3.17;;;36.60;49.00;;;;;;5075365;28;20033;-78
2022/07/20 11:28:54;;;;;;;7.13;3.38;;;36.60;49.30;;;;;;5073256;28;20035;-78
2022/07/20 11:31:27;;;;;;;4.88;3.78;;;36.90;48.90;;;;;;5062470;28;20043;-78
2022/07/20 11:33:55;;;;;;;5.13;3.85;;;37.50;48.20;;;;;;5061172;28;20051;-78
2022/07/20 11:36:26;;;;;;;5.10;3.58;;;37.90;47.60;;;;;;5059077;28;20368;-79
2022/07/20 11:38:59;;;;;;;5.32;3.95;;;38.30;47.30;;;;;;5075422;28;20025;-79
2022/07/20 11:41:33;;;;;;;4.75;3.50;;;38.60;46.80;;;;;;5061973;28;20039;-79
2022/07/20 11:44:01;;;;;;;4.25;3.60;;;38.80;46.20;;;;;;5061696;28;20031;-79
2022/07/20 11:46:40;;;;;;;4.57;3.13;;;39.10;45.60;;;;;;5095474;28;20510;-80
2022/07/20 11:49:14;;;;;;;5.28;3.25;;;39.20;45.50;;;;;;5081182;28;20406;-79
2022/07/20 11:51:43;;;;;;;5.38;3.50;;;39.40;45.40;;;;;;5080534;28;20040;-80
2022/07/20 11:54:10;;;;;;;4.10;3.38;;;39.70;44.70;;;;;;5077402;28;20032;-80
2022/07/20 11:56:37;;;;;;;5.15;3.03;;;40.00;44.20;;;;;;5036957;28;20043;-79
2022/07/20 11:59:06;;;;;;;6.30;3.50;;;40.00;44.20;;;;;;5074506;28;20455;-79
2022/07/20 12:01:36;;;;;;;3.38;2.92;;;40.00;44.00;;;;;;5077021;28;20045;-79
2022/07/20 12:04:06;;;;;;;5.30;3.80;;;40.20;43.60;;;;;;5075689;28;20383;-79
2022/07/20 12:06:35;;;;;;;8.27;3.17;;;40.00;43.50;;;;;;5089725;28;20063;-79
2022/07/20 12:09:10;;;;;;;6.25;3.38;;;40.20;43.50;;;;;;5060637;28;20028;-80
2022/07/20 12:11:56;;;;;;;4.80;2.80;;;40.50;43.10;;;;;;5075179;28;20036;-79
2022/07/20 12:14:34;;;;;;;3.78;3.00;;;40.70;42.90;;;;;;5067527;28;20050;-80
2022/07/20 12:17:16;;;;;;;3.42;2.88;;;41.10;42.60;;;;;;5062668;28;20032;-81
2022/07/20 12:19:45;;;;;;;5.53;2.83;;;40.70;42.30;;;;;;5074659;28;20391;-83
2022/07/20 12:22:20;;;;;;;4.10;3.05;;;40.20;42.80;;;;;;5077249;28;20384;-80
2022/07/20 12:25:01;;;;;;;3.88;2.50;;;40.30;42.80;;;;;;5086630;28;20035;-81
2022/07/20 12:27:29;;;;;;;4.47;2.80;;;40.50;42.50;;;;;;5080096;28;20047;-81
2022/07/20 12:29:57;;;;;;;3.85;2.67;;;40.30;42.20;;;;;;5072445;28;20035;-80
2022/07/20 12:32:36;;;;;;;4.88;2.72;;;40.00;42.30;;;;;;5069022;28;20039;-79
2022/07/20 12:35:06;;;;;;;5.03;2.67;;;40.30;42.50;;;;;;5072793;28;20037;-79
2022/07/20 12:37:55;;;;;;;4.45;2.95;;;40.70;41.70;;;;;;5079837;28;20067;-79
2022/07/20 12:40:40;;;;;;;4.55;3.20;;;41.20;41.20;;;;;;5080937;28;20546;-79
2022/07/20 12:43:33;;;;;;;4.95;2.83;;;41.50;40.90;;;;;;5071749;28;20029;-79
2022/07/20 12:46:08;;;;;;;4.63;3.17;;;41.50;40.40;;;;;;5072612;28;20035;-79
2022/07/20 12:48:47;;;;;;;4.22;2.33;;;41.50;40.30;;;;;;5061390;28;20028;-79
2022/07/20 12:51:14;;;;;;;3.75;2.67;;;41.70;40.30;;;;;;5070697;28;20024;-79